createdAt,value
2024-03-23T00:00:56.995Z,97549.04
2024-03-23T00:03:33.056Z,97548.46
2024-03-23T00:06:01.711Z,97548.23
2024-03-23T00:08:30.565Z,97550.20
2024-03-23T00:10:58.849Z,97545.09
2024-03-23T00:13:27.071Z,97545.46
2024-03-23T00:15:55.758Z,97544.56
2024-03-23T00:18:25.315Z,97542.92
2024-03-23T00:20:55.625Z,97537.79
2024-03-23T00:23:24.432Z,97538.08
2024-03-23T00:25:53.267Z,97535.97
2024-03-23T00:28:21.455Z,97537.78
2024-03-23T00:30:49.646Z,97534.23
2024-03-23T00:33:17.838Z,97529.70
2024-03-23T00:35:46.553Z,97522.80
2024-03-23T00:38:15.067Z,97522.17
2024-03-23T00:40:43.407Z,97518.39
2024-03-23T00:43:11.790Z,97517.60
2024-03-23T00:45:40.972Z,97514.27
2024-03-23T00:48:09.581Z,97517.08
2024-03-23T00:50:38.783Z,97512.67
2024-03-23T00:53:06.958Z,97507.17
2024-03-23T00:55:35.267Z,97504.12
2024-03-23T00:58:03.512Z,97501.54
2024-03-23T01:00:31.836Z,97497.95
2024-03-23T01:03:00.195Z,97494.64
2024-03-23T01:05:28.310Z,97491.14
2024-03-23T01:07:57.339Z,97491.56
2024-03-23T01:10:25.516Z,97490.14
2024-03-23T01:12:54.039Z,97489.18
2024-03-23T01:15:22.763Z,97485.52
2024-03-23T01:17:50.892Z,97486.55
2024-03-23T01:20:18.996Z,97488.22
2024-03-23T01:22:47.071Z,97491.47
2024-03-23T01:25:15.664Z,97492.10
2024-03-23T01:27:44.266Z,97486.61
2024-03-23T01:30:12.539Z,97487.54
2024-03-23T01:32:40.615Z,97486.17
2024-03-23T01:35:09.207Z,97485.09
2024-03-23T01:37:37.265Z,97484.80
2024-03-23T01:40:06.368Z,97479.79
2024-03-23T01:42:34.652Z,97479.15
2024-03-23T01:45:03.365Z,97480.94
2024-03-23T01:47:31.666Z,97477.37
2024-03-23T01:50:00.566Z,97478.94
2024-03-23T01:52:29.547Z,97475.21
2024-03-23T01:54:57.917Z,97471.73
2024-03-23T01:57:26.674Z,97467.91
2024-03-23T01:59:54.841Z,97464.37
2024-03-23T02:02:25.608Z,97462.11
2024-03-23T02:04:53.880Z,97461.60
2024-03-23T02:07:21.908Z,97461.98
2024-03-23T02:09:50.592Z,97460.82
2024-03-23T02:12:19.754Z,97456.04
2024-03-23T02:14:47.879Z,97453.18
2024-03-23T02:17:15.985Z,97451.65
2024-03-23T02:19:44.043Z,97450.25
2024-03-23T02:22:12.677Z,97453.61
2024-03-23T02:24:41.181Z,97449.08
2024-03-23T02:27:09.965Z,97444.44
2024-03-23T02:29:38.270Z,97440.63
2024-03-23T02:32:07.361Z,97438.66
2024-03-23T02:34:35.650Z,97438.02
2024-03-23T02:37:03.892Z,97436.02
2024-03-23T02:39:32.211Z,97435.66
2024-03-23T02:42:00.565Z,97440.04
2024-03-23T02:44:28.649Z,97437.98
2024-03-23T02:46:56.864Z,97438.59
2024-03-23T02:49:25.099Z,97433.14
2024-03-23T02:51:53.279Z,97435.63
2024-03-23T02:54:21.940Z,97438.13
2024-03-23T02:56:50.501Z,97439.80
2024-03-23T02:59:18.790Z,97443.89
2024-03-23T03:01:47.050Z,97439.92
2024-03-23T03:04:15.222Z,97434.61
2024-03-23T03:06:43.690Z,97430.63
2024-03-23T03:09:11.814Z,97432.02
2024-03-23T03:11:39.878Z,97428.75
2024-03-23T03:14:09.035Z,97428.80
2024-03-23T03:16:37.305Z,97428.80
2024-03-23T03:19:05.839Z,97425.11
2024-03-23T03:21:34.072Z,97419.25
2024-03-23T03:24:03.082Z,97410.83
2024-03-23T03:26:31.382Z,97410.55
2024-03-23T03:28:59.517Z,97417.34
2024-03-23T03:31:28.058Z,97415.22
2024-03-23T03:33:56.404Z,97420.86
2024-03-23T03:36:24.939Z,97421.58
2024-03-23T03:38:53.203Z,97423.05
2024-03-23T03:41:21.405Z,97421.02
2024-03-23T03:43:50.023Z,97421.27
2024-03-23T03:46:18.724Z,97420.13
2024-03-23T03:48:49.104Z,97429.55
2024-03-23T03:51:17.443Z,97432.69
2024-03-23T03:53:45.660Z,97429.13
2024-03-23T03:56:14.194Z,97428.48
2024-03-23T03:58:42.292Z,97424.48
2024-03-23T04:01:10.647Z,97424.40
2024-03-23T04:03:41.078Z,97429.56
2024-03-23T04:06:09.378Z,97431.60
2024-03-23T04:08:37.735Z,97431.02
2024-03-23T04:11:06.635Z,97424.96
2024-03-23T04:13:35.245Z,97426.54
2024-03-23T04:16:03.880Z,97425.41
2024-03-23T04:18:31.998Z,97425.92
2024-03-23T04:21:00.281Z,97416.80
2024-03-23T04:23:28.493Z,97414.55
2024-03-23T04:25:57.191Z,97415.53
2024-03-23T04:28:25.416Z,97419.45
2024-03-23T04:30:53.748Z,97418.07
2024-03-23T04:33:21.835Z,97412.98
2024-03-23T04:35:53.233Z,97420.25
2024-03-23T04:38:21.715Z,97418.54
2024-03-23T04:41:00.477Z,97414.93
2024-03-23T04:43:29.767Z,97417.66
2024-03-23T04:45:57.929Z,97417.08
2024-03-23T04:48:26.594Z,97412.49
2024-03-23T04:50:59.303Z,97411.28
2024-03-23T04:53:29.640Z,97409.31
2024-03-23T04:55:58.440Z,97404.25
2024-03-23T04:58:26.613Z,97405.16
2024-03-23T05:00:56.458Z,97406.65
2024-03-23T05:03:25.329Z,97406.88
2024-03-23T05:05:54.172Z,97404.28
2024-03-23T05:08:22.658Z,97402.36
2024-03-23T05:10:50.842Z,97406.43
2024-03-23T05:13:19.269Z,97402.88
2024-03-23T05:15:55.942Z,97404.97
2024-03-23T05:18:24.085Z,97406.11
2024-03-23T05:20:58.727Z,97410.53
2024-03-23T05:23:29.266Z,97411.64
2024-03-23T05:25:57.522Z,97415.05
2024-03-23T05:28:25.914Z,97417.73
2024-03-23T05:30:55.358Z,97414.67
2024-03-23T05:33:24.303Z,97417.27
2024-03-23T05:36:00.076Z,97412.83
2024-03-23T05:38:29.221Z,97411.65
2024-03-23T05:40:58.814Z,97412.33
2024-03-23T05:43:28.596Z,97413.59
2024-03-23T05:45:58.239Z,97413.79
2024-03-23T05:48:27.636Z,97413.12
2024-03-23T05:50:55.868Z,97407.50
2024-03-23T05:53:25.484Z,97408.29
2024-03-23T05:56:02.329Z,97410.83
2024-03-23T05:58:30.926Z,97413.46
2024-03-23T06:01:03.391Z,97412.13
2024-03-23T06:03:31.821Z,97410.77
2024-03-23T06:06:00.647Z,97411.76
2024-03-23T06:08:28.903Z,97411.14
2024-03-23T06:10:57.414Z,97406.27
2024-03-23T06:13:31.087Z,97406.73
2024-03-23T06:15:59.863Z,97405.73
2024-03-23T06:18:29.062Z,97401.96
2024-03-23T06:20:57.415Z,97403.08
2024-03-23T06:23:25.695Z,97408.77
2024-03-23T06:25:54.315Z,97411.95
2024-03-23T06:28:22.934Z,97410.92
2024-03-23T06:30:51.510Z,97411.40
2024-03-23T06:33:19.635Z,97410.78
2024-03-23T06:35:54.402Z,97413.91
2024-03-23T06:38:22.508Z,97415.98
2024-03-23T06:40:52.297Z,97414.64
2024-03-23T06:43:21.037Z,97411.66
2024-03-23T06:45:56.168Z,97412.27
2024-03-23T06:48:25.393Z,97411.70
2024-03-23T06:51:00.680Z,97409.13
2024-03-23T06:53:28.879Z,97408.96
2024-03-23T06:55:57.841Z,97408.42
2024-03-23T06:58:26.421Z,97409.48
2024-03-23T07:00:54.609Z,97412.56
2024-03-23T07:03:23.312Z,97412.13
2024-03-23T07:05:51.693Z,97411.35
2024-03-23T07:08:23.418Z,97409.16
2024-03-23T07:10:52.179Z,97406.05
2024-03-23T07:13:20.868Z,97395.54
2024-03-23T07:15:59.691Z,97398.92
2024-03-23T07:18:28.271Z,97399.02
2024-03-23T07:21:00.353Z,97393.17
2024-03-23T07:23:28.618Z,97392.70
2024-03-23T07:26:06.042Z,97391.77
2024-03-23T07:28:35.819Z,97382.15
2024-03-23T07:31:05.694Z,97377.23
2024-03-23T07:33:36.814Z,97374.21
2024-03-23T07:36:07.095Z,97375.95
2024-03-23T07:38:35.308Z,97370.20
2024-03-23T07:41:08.232Z,97373.27
2024-03-23T07:43:38.541Z,97371.20
2024-03-23T07:46:08.845Z,97369.73
2024-03-23T07:48:37.650Z,97367.77
2024-03-23T07:51:08.881Z,97366.71
2024-03-23T07:53:38.449Z,97369.53
2024-03-23T07:56:09.545Z,97369.64
2024-03-23T07:58:38.639Z,97367.56
2024-03-23T08:01:11.431Z,97358.41
2024-03-23T08:03:41.948Z,97356.40
2024-03-23T08:06:16.444Z,97354.34
2024-03-23T08:08:47.769Z,97347.52
2024-03-23T08:11:16.570Z,97342.89
2024-03-23T08:13:46.833Z,97341.20
2024-03-23T08:16:15.536Z,97343.42
2024-03-23T08:18:43.997Z,97341.64
2024-03-23T08:21:12.665Z,97341.54
2024-03-23T08:23:41.449Z,97339.20
2024-03-23T08:26:14.337Z,97340.17
2024-03-23T08:28:42.685Z,97331.75
2024-03-23T08:31:15.676Z,97326.85
2024-03-23T08:33:44.423Z,97326.35
2024-03-23T08:36:15.471Z,97327.52
2024-03-23T08:38:43.998Z,97321.92
2024-03-23T08:41:14.441Z,97314.01
2024-03-23T08:43:44.999Z,97311.17
2024-03-23T08:46:14.815Z,97307.59
2024-03-23T08:48:46.659Z,97303.13
2024-03-23T08:51:16.247Z,97302.11
2024-03-23T08:53:45.727Z,97298.73
2024-03-23T08:56:14.538Z,97293.53
2024-03-23T08:58:42.861Z,97285.90
2024-03-23T09:01:14.552Z,97280.65
2024-03-23T09:03:43.183Z,97277.30
2024-03-23T09:06:13.255Z,97275.59
2024-03-23T09:08:43.034Z,97267.60
2024-03-23T09:11:14.752Z,97262.11
2024-03-23T09:13:43.075Z,97257.31
2024-03-23T09:16:11.401Z,97257.67
2024-03-23T09:18:39.939Z,97256.84
2024-03-23T09:21:15.315Z,97257.27
2024-03-23T09:23:47.563Z,97250.09
2024-03-23T09:26:15.929Z,97242.93
2024-03-23T09:28:44.457Z,97238.69
2024-03-23T09:31:15.696Z,97234.75
2024-03-23T09:33:45.097Z,97225.36
2024-03-23T09:36:13.400Z,97224.34
2024-03-23T09:38:42.531Z,97217.98
2024-03-23T09:41:11.235Z,97210.38
2024-03-23T09:43:39.346Z,97208.54
2024-03-23T09:46:08.733Z,97203.92
2024-03-23T09:48:37.584Z,97199.85
2024-03-23T09:51:05.733Z,97192.86
2024-03-23T09:53:34.842Z,97189.68
2024-03-23T09:56:05.240Z,97186.48
2024-03-23T09:58:33.959Z,97187.59
2024-03-23T10:01:03.506Z,97181.78
2024-03-23T10:03:31.894Z,97175.59
2024-03-23T10:06:04.381Z,97172.39
2024-03-23T10:08:36.253Z,97174.96
2024-03-23T10:11:16.893Z,97172.09
2024-03-23T10:13:47.629Z,97161.98
2024-03-23T10:16:24.415Z,97161.93
2024-03-23T10:18:52.583Z,97156.46
2024-03-23T10:21:21.424Z,97154.05
2024-03-23T10:23:50.971Z,97148.23
2024-03-23T10:26:22.749Z,97142.05
2024-03-23T10:28:54.969Z,97138.46
2024-03-23T10:31:23.138Z,97135.23
2024-03-23T10:33:51.319Z,97131.13
2024-03-23T10:36:21.798Z,97132.18
2024-03-23T10:38:53.129Z,97131.98
2024-03-23T10:41:21.475Z,97122.08
2024-03-23T10:43:51.018Z,97120.37
2024-03-23T10:46:20.223Z,97113.61
2024-03-23T10:48:50.329Z,97112.19
2024-03-23T10:51:18.837Z,97108.84
2024-03-23T10:53:48.796Z,97105.64
2024-03-23T10:56:19.223Z,97103.34
2024-03-23T10:58:50.833Z,97097.67
2024-03-23T11:01:19.793Z,97091.32
2024-03-23T11:03:48.756Z,97090.21
2024-03-23T11:06:37.880Z,97094.01
2024-03-23T11:09:35.102Z,97081.03
2024-03-23T11:12:19.196Z,97074.88
2024-03-23T11:14:50.421Z,97072.19
2024-03-23T11:17:22.891Z,97065.34
2024-03-23T11:20:12.803Z,97067.74
2024-03-23T11:22:48.731Z,97059.05
2024-03-23T11:25:22.251Z,97052.30
2024-03-23T11:28:12.827Z,97047.83
2024-03-23T11:30:41.083Z,97040.43
2024-03-23T11:33:09.662Z,97039.59
2024-03-23T11:35:42.061Z,97032.77
2024-03-23T11:38:21.358Z,97029.25
2024-03-23T11:40:50.853Z,97026.73
2024-03-23T11:43:20.878Z,97018.84
2024-03-23T11:45:54.285Z,97011.94
2024-03-23T11:48:24.488Z,97007.39
2024-03-23T11:50:58.567Z,97002.10
2024-03-23T11:53:30.047Z,96995.45
2024-03-23T11:56:01.587Z,96995.17
2024-03-23T11:58:29.803Z,96986.30
2024-03-23T12:01:03.100Z,96985.13
2024-03-23T12:03:34.084Z,96978.75
2024-03-23T12:06:05.040Z,96972.81
2024-03-23T12:08:34.477Z,96969.75
2024-03-23T12:11:16.378Z,96969.06
2024-03-23T12:13:47.560Z,96963.73
2024-03-23T12:16:25.788Z,96957.42
2024-03-23T12:18:53.919Z,96952.48
2024-03-23T12:21:23.834Z,96949.14
2024-03-23T12:23:53.068Z,96941.85
2024-03-23T12:26:21.742Z,96939.89
2024-03-23T12:28:50.149Z,96933.37
2024-03-23T12:31:18.664Z,96926.05
2024-03-23T12:33:47.240Z,96922.45
2024-03-23T12:36:15.875Z,96919.16
2024-03-23T12:38:45.784Z,96915.94
2024-03-23T12:41:14.063Z,96915.52
2024-03-23T12:43:42.197Z,96908.69
2024-03-23T12:46:12.911Z,96906.70
2024-03-23T12:48:41.326Z,96901.46
2024-03-23T12:51:09.966Z,96901.22
2024-03-23T12:53:38.431Z,96895.16
2024-03-23T12:56:06.941Z,96890.81
2024-03-23T12:58:35.046Z,96891.60
2024-03-23T13:01:03.540Z,96889.11
2024-03-23T13:03:31.807Z,96882.13
2024-03-23T13:06:00.383Z,96880.79
2024-03-23T13:08:28.954Z,96874.71
2024-03-23T13:10:57.231Z,96870.49
2024-03-23T13:13:25.907Z,96870.84
2024-03-23T13:15:55.034Z,96867.96
2024-03-23T13:18:23.390Z,96863.36
2024-03-23T13:20:51.941Z,96861.00
2024-03-23T13:23:20.427Z,96856.73
2024-03-23T13:25:56.540Z,96851.86
2024-03-23T13:28:24.952Z,96848.12
2024-03-23T13:30:59.041Z,96845.63
2024-03-23T13:33:27.367Z,96842.39
2024-03-23T13:35:57.461Z,96839.36
2024-03-23T13:38:26.142Z,96831.73
2024-03-23T13:40:59.005Z,96829.79
2024-03-23T13:43:29.399Z,96828.07
2024-03-23T13:46:00.493Z,96824.02
2024-03-23T13:48:30.772Z,96820.84
2024-03-23T13:51:00.093Z,96820.99
2024-03-23T13:53:28.906Z,96817.47
2024-03-23T13:55:57.969Z,96810.16
2024-03-23T13:58:26.830Z,96808.08
2024-03-23T14:00:58.359Z,96803.14
2024-03-23T14:03:26.911Z,96799.77
2024-03-23T14:05:57.716Z,96795.26
2024-03-23T14:08:26.150Z,96795.73
2024-03-23T14:10:54.617Z,96789.48
2024-03-23T14:13:22.951Z,96784.56
2024-03-23T14:15:55.031Z,96784.23
2024-03-23T14:18:24.151Z,96782.99
2024-03-23T14:20:53.360Z,96781.48
2024-03-23T14:23:21.908Z,96775.65
2024-03-23T14:25:50.576Z,96768.55
2024-03-23T14:28:19.050Z,96773.42
2024-03-23T14:30:47.193Z,96771.23
2024-03-23T14:33:15.476Z,96772.27
2024-03-23T14:35:43.833Z,96769.38
2024-03-23T14:38:12.239Z,96766.36
2024-03-23T14:40:40.681Z,96765.64
2024-03-23T14:43:08.780Z,96761.44
2024-03-23T14:45:37.998Z,96754.64
2024-03-23T14:48:06.536Z,96753.89
2024-03-23T14:50:37.281Z,96750.58
2024-03-23T14:53:05.458Z,96749.27
2024-03-23T14:55:33.734Z,96747.58
2024-03-23T14:58:02.641Z,96744.02
2024-03-23T15:00:31.015Z,96741.02
2024-03-23T15:03:02.571Z,96739.40
2024-03-23T15:05:30.919Z,96734.52
2024-03-23T15:07:59.610Z,96731.70
2024-03-23T15:10:28.138Z,96731.84
2024-03-23T15:12:56.471Z,96731.25
2024-03-23T15:15:24.730Z,96731.38
2024-03-23T15:17:53.324Z,96730.27
2024-03-23T15:20:21.680Z,96728.32
2024-03-23T15:22:50.091Z,96728.53
2024-03-23T15:25:19.063Z,96724.65
2024-03-23T15:27:51.543Z,96722.36
2024-03-23T15:30:20.370Z,96718.67
2024-03-23T15:32:49.091Z,96713.33
2024-03-23T15:35:17.285Z,96709.05
2024-03-23T15:37:45.256Z,96706.55
2024-03-23T15:40:14.689Z,96707.58
2024-03-23T15:42:43.567Z,96705.60
2024-03-23T15:45:11.577Z,96705.63
2024-03-23T15:47:40.163Z,96701.46
2024-03-23T15:50:09.993Z,96698.06
2024-03-23T15:52:38.754Z,96693.85
2024-03-23T15:55:08.025Z,96691.30
2024-03-23T15:57:36.132Z,96685.83
2024-03-23T16:00:05.263Z,96685.81
2024-03-23T16:02:43.012Z,96687.12
2024-03-23T16:05:12.550Z,96686.41
2024-03-23T16:07:40.660Z,96680.84
2024-03-23T16:10:10.415Z,96684.75
2024-03-23T16:12:39.134Z,96679.64
2024-03-23T16:15:07.489Z,96681.02
2024-03-23T16:17:36.759Z,96676.08
2024-03-23T16:20:05.684Z,96672.08
2024-03-23T16:22:33.953Z,96672.54
2024-03-23T16:25:02.378Z,96672.89
2024-03-23T16:27:30.462Z,96672.71
2024-03-23T16:29:59.611Z,96666.91
2024-03-23T16:32:32.747Z,96662.10
2024-03-23T16:35:02.525Z,96660.98
2024-03-23T16:37:30.812Z,96659.63
2024-03-23T16:39:58.793Z,96660.66
2024-03-23T16:42:26.664Z,96666.88
2024-03-23T16:44:54.539Z,96666.00
2024-03-23T16:47:23.244Z,96665.52
2024-03-23T16:49:53.771Z,96662.92
2024-03-23T16:52:24.243Z,96663.21
2024-03-23T16:54:52.445Z,96665.10
2024-03-23T16:57:20.820Z,96665.02
2024-03-23T16:59:49.037Z,96669.65
2024-03-23T17:02:17.298Z,96665.91
2024-03-23T17:04:45.698Z,96668.33
2024-03-23T17:07:13.869Z,96671.54
2024-03-23T17:09:49.454Z,96671.45
2024-03-23T17:12:18.436Z,96666.70
2024-03-23T17:14:46.341Z,96667.51
2024-03-23T17:17:14.339Z,96665.67
2024-03-23T17:19:42.261Z,96666.80
2024-03-23T17:22:10.192Z,96669.60
2024-03-23T17:24:38.519Z,96667.77
2024-03-23T17:27:06.491Z,96669.98
2024-03-23T17:29:34.550Z,96672.99
2024-03-23T17:32:03.560Z,96673.55
2024-03-23T17:34:31.800Z,96670.16
2024-03-23T17:36:59.936Z,96670.02
2024-03-23T17:39:28.222Z,96667.24
2024-03-23T17:41:56.397Z,96667.48
2024-03-23T17:44:25.373Z,96664.50
2024-03-23T17:46:53.502Z,96662.79
2024-03-23T17:49:22.024Z,96665.19
2024-03-23T17:51:50.455Z,96668.51
2024-03-23T17:54:20.835Z,96668.41
2024-03-23T17:56:49.448Z,96674.34
2024-03-23T17:59:17.537Z,96676.52
2024-03-23T18:01:45.801Z,96677.43
2024-03-23T18:04:14.399Z,96677.35
2024-03-23T18:06:43.042Z,96682.58
2024-03-23T18:09:11.571Z,96685.45
2024-03-23T18:11:39.922Z,96680.34
2024-03-23T18:14:08.092Z,96680.98
2024-03-23T18:16:36.751Z,96680.20
2024-03-23T18:19:06.079Z,96680.45
2024-03-23T18:21:34.239Z,96685.84
2024-03-23T18:24:02.838Z,96687.70
2024-03-23T18:26:31.402Z,96681.60
2024-03-23T18:28:59.863Z,96681.73
2024-03-23T18:31:27.990Z,96678.23
2024-03-23T18:33:58.177Z,96679.80
2024-03-23T18:36:26.327Z,96677.88
2024-03-23T18:38:56.070Z,96677.23
2024-03-23T18:41:24.473Z,96672.55
2024-03-23T18:43:52.849Z,96669.04
2024-03-23T18:46:21.088Z,96671.50
2024-03-23T18:48:52.073Z,96669.20
2024-03-23T18:51:21.345Z,96671.02
2024-03-23T18:53:49.840Z,96673.18
2024-03-23T18:56:17.988Z,96672.23
2024-03-23T18:58:46.084Z,96668.96
2024-03-23T19:01:16.979Z,96670.23
2024-03-23T19:03:45.020Z,96669.70
2024-03-23T19:06:13.267Z,96670.96
2024-03-23T19:08:41.774Z,96672.20
2024-03-23T19:11:10.323Z,96668.86
2024-03-23T19:13:38.485Z,96664.11
2024-03-23T19:16:07.186Z,96666.11
2024-03-23T19:18:35.569Z,96666.13
2024-03-23T19:21:04.240Z,96663.59
2024-03-23T19:23:35.433Z,96661.31
2024-03-23T19:26:05.242Z,96661.50
2024-03-23T19:28:33.961Z,96661.00
2024-03-23T19:31:03.971Z,96654.38
2024-03-23T19:33:37.101Z,96656.48
2024-03-23T19:36:05.371Z,96659.54
2024-03-23T19:38:33.515Z,96654.79
2024-03-23T19:41:01.756Z,96652.61
2024-03-23T19:43:31.294Z,96649.71
2024-03-23T19:46:05.484Z,96648.17
2024-03-23T19:48:33.862Z,96643.77
2024-03-23T19:51:02.971Z,96636.55
2024-03-23T19:53:31.068Z,96639.34
2024-03-23T19:56:01.869Z,96638.71
2024-03-23T19:58:30.709Z,96635.02
2024-03-23T20:01:24.627Z,96638.30
2024-03-23T20:03:55.439Z,96634.52
2024-03-23T20:06:24.902Z,96630.80
2024-03-23T20:08:53.375Z,96628.27
2024-03-23T20:11:25.302Z,96621.67
2024-03-23T20:13:53.471Z,96620.09
2024-03-23T20:16:24.099Z,96627.08
2024-03-23T20:18:56.308Z,96625.31
2024-03-23T20:21:24.583Z,96620.79
2024-03-23T20:23:53.173Z,96620.88
2024-03-23T20:26:23.615Z,96622.52
2024-03-23T20:28:52.812Z,96619.56
2024-03-23T20:31:21.233Z,96615.62
2024-03-23T20:33:49.596Z,96615.69
2024-03-23T20:36:19.869Z,96605.39
2024-03-23T20:38:48.103Z,96601.45
2024-03-23T20:41:17.407Z,96600.11
2024-03-23T20:43:48.139Z,96592.23
2024-03-23T20:46:16.946Z,96593.83
2024-03-23T20:48:50.455Z,96595.06
2024-03-23T20:51:20.399Z,96590.02
2024-03-23T20:53:49.823Z,96588.13
2024-03-23T20:56:19.286Z,96584.29
2024-03-23T20:58:47.715Z,96587.11
2024-03-23T21:01:16.836Z,96581.33
2024-03-23T21:03:45.068Z,96579.13
2024-03-23T21:06:12.995Z,96573.16
2024-03-23T21:08:41.173Z,96570.02
2024-03-23T21:11:09.534Z,96568.59
2024-03-23T21:13:37.578Z,96566.73
2024-03-23T21:16:05.766Z,96562.52
2024-03-23T21:18:34.588Z,96561.83
2024-03-23T21:21:04.718Z,96555.88
2024-03-23T21:23:33.594Z,96548.73
2024-03-23T21:26:04.162Z,96549.73
2024-03-23T21:28:32.510Z,96545.88
2024-03-23T21:31:05.437Z,96542.81
2024-03-23T21:33:37.276Z,96539.75
2024-03-23T21:36:07.625Z,96533.94
2024-03-23T21:38:36.256Z,96532.33
2024-03-23T21:41:04.974Z,96527.11
2024-03-23T21:43:33.394Z,96527.05
2024-03-23T21:46:05.831Z,96525.83
2024-03-23T21:48:36.799Z,96522.95
2024-03-23T21:51:07.017Z,96513.98
2024-03-23T21:53:35.888Z,96515.29
2024-03-23T21:56:05.218Z,96515.52
2024-03-23T21:58:33.890Z,96514.77
2024-03-23T22:01:06.246Z,96515.48
2024-03-23T22:03:35.132Z,96508.04
2024-03-23T22:06:03.692Z,96504.06
2024-03-23T22:08:32.549Z,96503.48
2024-03-23T22:11:01.038Z,96503.09
2024-03-23T22:13:30.107Z,96497.25
2024-03-23T22:15:59.803Z,96488.52
2024-03-23T22:18:28.428Z,96489.27
2024-03-23T22:20:59.600Z,96491.23
2024-03-23T22:23:28.534Z,96487.50
2024-03-23T22:26:00.228Z,96488.83
2024-03-23T22:28:29.322Z,96485.92
2024-03-23T22:31:03.036Z,96482.90
2024-03-23T22:33:32.502Z,96478.25
2024-03-23T22:36:01.515Z,96478.09
2024-03-23T22:38:29.726Z,96473.67
2024-03-23T22:40:58.704Z,96472.85
2024-03-23T22:43:28.233Z,96470.66
2024-03-23T22:46:00.897Z,96472.45
2024-03-23T22:48:31.082Z,96469.61
2024-03-23T22:51:02.654Z,96464.66
2024-03-23T22:53:31.202Z,96458.23
2024-03-23T22:55:59.785Z,96453.15
2024-03-23T22:58:28.679Z,96448.19
2024-03-23T23:00:59.442Z,96445.73
2024-03-23T23:03:28.028Z,96440.00
2024-03-23T23:06:01.829Z,96441.09
2024-03-23T23:08:30.528Z,96436.16
2024-03-23T23:10:59.787Z,96434.16
2024-03-23T23:13:28.280Z,96430.90
2024-03-23T23:15:57.046Z,96422.77
2024-03-23T23:18:26.229Z,96421.33
2024-03-23T23:20:56.296Z,96418.12
2024-03-23T23:23:25.395Z,96419.67
2024-03-23T23:25:57.917Z,96418.16
2024-03-23T23:28:26.686Z,96418.25
2024-03-23T23:31:02.928Z,96414.86
2024-03-23T23:33:31.854Z,96412.80
2024-03-23T23:36:01.039Z,96409.00
2024-03-23T23:38:29.552Z,96405.40
2024-03-23T23:40:58.165Z,96396.64
2024-03-23T23:43:26.908Z,96394.52
2024-03-23T23:45:56.351Z,96390.80
2024-03-23T23:48:24.877Z,96388.73
2024-03-23T23:50:53.313Z,96392.77
2024-03-23T23:53:24.856Z,96395.41
2024-03-23T23:55:53.356Z,96394.63
2024-03-23T23:58:21.985Z,96388.73
